sensor_id;sensor_type;location;lat;lon;timestamp;P1;durP1;ratioP1;P2;durP2;ratioP2
81894;SDS011;71358;45.642;13.758;2023-09-19T00:01:20;8.93;;;6.72;;
81894;SDS011;71358;45.642;13.758;2023-09-19T00:04:05;10.32;;;7.18;;
81894;SDS011;71358;45.642;13.758;2023-09-19T00:06:53;7.22;;;6.55;;
81894;SDS011;71358;45.642;13.758;2023-09-19T00:09:38;9.23;;;6.75;;
81894;SDS011;71358;45.642;13.758;2023-09-19T00:12:22;8.73;;;6.07;;
81894;SDS011;71358;45.642;13.758;2023-09-19T00:15:07;14.05;;;7.03;;
81894;SDS011;71358;45.642;13.758;2023-09-19T00:17:55;9.88;;;7.07;;
81894;SDS011;71358;45.642;13.758;2023-09-19T00:20:39;8.70;;;7.10;;
81894;SDS011;71358;45.642;13.758;2023-09-19T00:23:26;6.85;;;6.10;;
81894;SDS011;71358;45.642;13.758;2023-09-19T00:26:12;11.35;;;7.82;;
81894;SDS011;71358;45.642;13.758;2023-09-19T00:28:58;10.00;;;6.68;;
81894;SDS011;71358;45.642;13.758;2023-09-19T00:31:52;9.73;;;7.63;;
81894;SDS011;71358;45.642;13.758;2023-09-19T00:34:38;9.25;;;6.40;;
81894;SDS011;71358;45.642;13.758;2023-09-19T00:37:22;10.63;;;7.13;;
81894;SDS011;71358;45.642;13.758;2023-09-19T00:40:07;12.48;;;7.10;;
81894;SDS011;71358;45.642;13.758;2023-09-19T00:42:59;11.05;;;6.63;;
81894;SDS011;71358;45.642;13.758;2023-09-19T00:45:47;12.63;;;6.80;;
81894;SDS011;71358;45.642;13.758;2023-09-19T00:48:32;13.40;;;7.05;;
81894;SDS011;71358;45.642;13.758;2023-09-19T00:51:25;10.02;;;6.25;;
81894;SDS011;71358;45.642;13.758;2023-09-19T00:54:11;8.45;;;6.70;;
81894;SDS011;71358;45.642;13.758;2023-09-19T00:57:00;10.90;;;6.57;;
81894;SDS011;71358;45.642;13.758;2023-09-19T00:59:45;13.05;;;7.35;;
81894;SDS011;71358;45.642;13.758;2023-09-19T01:02:33;11.45;;;7.63;;
81894;SDS011;71358;45.642;13.758;2023-09-19T01:05:18;13.95;;;6.82;;
81894;SDS011;71358;45.642;13.758;2023-09-19T01:08:03;11.70;;;6.93;;
81894;SDS011;71358;45.642;13.758;2023-09-19T01:10:52;10.35;;;6.93;;
81894;SDS011;71358;45.642;13.758;2023-09-19T01:17:21;9.63;;;6.75;;
81894;SDS011;71358;45.642;13.758;2023-09-19T01:23:24;7.75;;;6.90;;
81894;SDS011;71358;45.642;13.758;2023-09-19T01:32:09;11.00;;;7.07;;
81894;SDS011;71358;45.642;13.758;2023-09-19T01:34:57;9.48;;;6.93;;
81894;SDS011;71358;45.642;13.758;2023-09-19T01:37:47;12.80;;;6.07;;
81894;SDS011;71358;45.642;13.758;2023-09-19T01:40:32;11.82;;;7.10;;
81894;SDS011;71358;45.642;13.758;2023-09-19T01:43:30;10.07;;;6.30;;
81894;SDS011;71358;45.642;13.758;2023-09-19T01:46:29;15.90;;;6.97;;
81894;SDS011;71358;45.642;13.758;2023-09-19T01:49:40;13.48;;;6.68;;
81894;SDS011;71358;45.642;13.758;2023-09-19T01:52:33;11.65;;;7.00;;
81894;SDS011;71358;45.642;13.758;2023-09-19T01:55:27;10.65;;;6.38;;
81894;SDS011;71358;45.642;13.758;2023-09-19T01:58:14;11.60;;;7.65;;
81894;SDS011;71358;45.642;13.758;2023-09-19T02:01:04;13.85;;;6.55;;
81894;SDS011;71358;45.642;13.758;2023-09-19T02:03:52;8.98;;;6.80;;
81894;SDS011;71358;45.642;13.758;2023-09-19T02:06:41;12.73;;;7.07;;
81894;SDS011;71358;45.642;13.758;2023-09-19T02:09:26;10.30;;;7.18;;
81894;SDS011;71358;45.642;13.758;2023-09-19T02:12:11;9.80;;;7.03;;
81894;SDS011;71358;45.642;13.758;2023-09-19T02:14:55;14.93;;;7.43;;
81894;SDS011;71358;45.642;13.758;2023-09-19T02:17:41;12.77;;;7.03;;
81894;SDS011;71358;45.642;13.758;2023-09-19T02:20:30;14.30;;;7.60;;
81894;SDS011;71358;45.642;13.758;2023-09-19T02:23:16;11.20;;;6.70;;
81894;SDS011;71358;45.642;13.758;2023-09-19T02:26:01;10.95;;;6.85;;
81894;SDS011;71358;45.642;13.758;2023-09-19T02:28:45;9.38;;;6.63;;
81894;SDS011;71358;45.642;13.758;2023-09-19T02:31:30;14.55;;;7.47;;
81894;SDS011;71358;45.642;13.758;2023-09-19T02:34:15;16.88;;;7.88;;
81894;SDS011;71358;45.642;13.758;2023-09-19T02:37:04;11.13;;;7.43;;
81894;SDS011;71358;45.642;13.758;2023-09-19T02:39:49;13.38;;;6.85;;
81894;SDS011;71358;45.642;13.758;2023-09-19T02:42:33;13.45;;;7.70;;
81894;SDS011;71358;45.642;13.758;2023-09-19T02:45:18;14.85;;;7.80;;
81894;SDS011;71358;45.642;13.758;2023-09-19T02:48:03;17.48;;;7.72;;
81894;SDS011;71358;45.642;13.758;2023-09-19T02:50:51;12.75;;;7.50;;
81894;SDS011;71358;45.642;13.758;2023-09-19T02:53:36;16.02;;;7.75;;
81894;SDS011;71358;45.642;13.758;2023-09-19T02:56:21;12.50;;;7.60;;
81894;SDS011;71358;45.642;13.758;2023-09-19T02:59:06;12.52;;;7.63;;
81894;SDS011;71358;45.642;13.758;2023-09-19T03:01:51;16.38;;;7.78;;
81894;SDS011;71358;45.642;13.758;2023-09-19T03:04:35;14.18;;;7.18;;
81894;SDS011;71358;45.642;13.758;2023-09-19T03:07:20;14.18;;;7.40;;
81894;SDS011;71358;45.642;13.758;2023-09-19T03:10:08;14.20;;;8.20;;
81894;SDS011;71358;45.642;13.758;2023-09-19T03:12:53;18.38;;;8.45;;
81894;SDS011;71358;45.642;13.758;2023-09-19T03:15:41;13.02;;;7.38;;
81894;SDS011;71358;45.642;13.758;2023-09-19T03:18:29;13.10;;;7.35;;
81894;SDS011;71358;45.642;13.758;2023-09-19T03:21:14;18.52;;;8.18;;
81894;SDS011;71358;45.642;13.758;2023-09-19T03:24:00;17.38;;;8.05;;
81894;SDS011;71358;45.642;13.758;2023-09-19T03:26:45;16.13;;;8.02;;
81894;SDS011;71358;45.642;13.758;2023-09-19T03:29:29;16.30;;;7.70;;
81894;SDS011;71358;45.642;13.758;2023-09-19T03:32:14;13.15;;;8.00;;
81894;SDS011;71358;45.642;13.758;2023-09-19T03:34:59;14.65;;;8.13;;
81894;SDS011;71358;45.642;13.758;2023-09-19T03:37:43;14.75;;;7.57;;
81894;SDS011;71358;45.642;13.758;2023-09-19T03:40:28;18.95;;;8.00;;
81894;SDS011;71358;45.642;13.758;2023-09-19T03:43:13;17.60;;;7.97;;
81894;SDS011;71358;45.642;13.758;2023-09-19T03:46:00;15.82;;;7.60;;
81894;SDS011;71358;45.642;13.758;2023-09-19T03:48:49;14.75;;;7.68;;
81894;SDS011;71358;45.642;13.758;2023-09-19T03:51:34;14.85;;;7.78;;
81894;SDS011;71358;45.642;13.758;2023-09-19T03:54:18;14.10;;;7.65;;
81894;SDS011;71358;45.642;13.758;2023-09-19T03:57:03;10.95;;;6.80;;
81894;SDS011;71358;45.642;13.758;2023-09-19T03:59:48;15.65;;;7.68;;
81894;SDS011;71358;45.642;13.758;2023-09-19T04:02:32;16.70;;;7.57;;
81894;SDS011;71358;45.642;13.758;2023-09-19T04:05:17;13.13;;;7.82;;
81894;SDS011;71358;45.642;13.758;2023-09-19T04:08:03;10.57;;;6.68;;
81894;SDS011;71358;45.642;13.758;2023-09-19T04:10:48;17.30;;;7.10;;
81894;SDS011;71358;45.642;13.758;2023-09-19T04:13:34;13.13;;;8.07;;
81894;SDS011;71358;45.642;13.758;2023-09-19T04:16:19;16.15;;;7.20;;
81894;SDS011;71358;45.642;13.758;2023-09-19T04:19:04;14.40;;;6.72;;
81894;SDS011;71358;45.642;13.758;2023-09-19T04:21:49;14.23;;;7.50;;
81894;SDS011;71358;45.642;13.758;2023-09-19T04:24:33;11.93;;;7.30;;
81894;SDS011;71358;45.642;13.758;2023-09-19T04:27:18;14.48;;;6.88;;
81894;SDS011;71358;45.642;13.758;2023-09-19T04:30:03;11.60;;;7.20;;
81894;SDS011;71358;45.642;13.758;2023-09-19T04:32:53;11.90;;;6.53;;
81894;SDS011;71358;45.642;13.758;2023-09-19T04:35:38;11.65;;;7.05;;
81894;SDS011;71358;45.642;13.758;2023-09-19T04:38:23;12.25;;;6.43;;
81894;SDS011;71358;45.642;13.758;2023-09-19T04:41:07;10.98;;;7.18;;
81894;SDS011;71358;45.642;13.758;2023-09-19T04:43:52;11.48;;;7.00;;
81894;SDS011;71358;45.642;13.758;2023-09-19T04:46:36;10.75;;;7.10;;
81894;SDS011;71358;45.642;13.758;2023-09-19T04:49:21;12.55;;;7.15;;
81894;SDS011;71358;45.642;13.758;2023-09-19T04:52:06;9.82;;;6.20;;
81894;SDS011;71358;45.642;13.758;2023-09-19T04:54:50;13.55;;;6.93;;
81894;SDS011;71358;45.642;13.758;2023-09-19T04:57:35;13.32;;;6.60;;
81894;SDS011;71358;45.642;13.758;2023-09-19T05:00:20;14.68;;;7.20;;
81894;SDS011;71358;45.642;13.758;2023-09-19T05:03:08;11.60;;;7.30;;
81894;SDS011;71358;45.642;13.758;2023-09-19T05:05:52;14.05;;;6.85;;
81894;SDS011;71358;45.642;13.758;2023-09-19T05:08:37;12.05;;;6.65;;
81894;SDS011;71358;45.642;13.758;2023-09-19T05:11:22;10.77;;;6.70;;
81894;SDS011;71358;45.642;13.758;2023-09-19T05:14:08;10.80;;;6.90;;
81894;SDS011;71358;45.642;13.758;2023-09-19T05:16:52;12.77;;;7.03;;
81894;SDS011;71358;45.642;13.758;2023-09-19T05:19:37;10.25;;;6.40;;
81894;SDS011;71358;45.642;13.758;2023-09-19T05:22:22;10.90;;;6.88;;
81894;SDS011;71358;45.642;13.758;2023-09-19T05:25:11;13.93;;;7.00;;
81894;SDS011;71358;45.642;13.758;2023-09-19T05:28:00;12.15;;;6.57;;
81894;SDS011;71358;45.642;13.758;2023-09-19T05:30:47;10.00;;;6.30;;
81894;SDS011;71358;45.642;13.758;2023-09-19T05:33:32;10.55;;;6.05;;
81894;SDS011;71358;45.642;13.758;2023-09-19T05:36:17;9.27;;;6.80;;
81894;SDS011;71358;45.642;13.758;2023-09-19T05:39:01;13.57;;;6.65;;
81894;SDS011;71358;45.642;13.758;2023-09-19T05:41:46;11.80;;;7.22;;
81894;SDS011;71358;45.642;13.758;2023-09-19T05:44:31;9.98;;;6.25;;
81894;SDS011;71358;45.642;13.758;2023-09-19T05:47:17;9.90;;;6.68;;
81894;SDS011;71358;45.642;13.758;2023-09-19T05:50:02;11.88;;;7.10;;
81894;SDS011;71358;45.642;13.758;2023-09-19T05:52:53;12.30;;;6.10;;
81894;SDS011;71358;45.642;13.758;2023-09-19T05:55:40;12.75;;;6.40;;
81894;SDS011;71358;45.642;13.758;2023-09-19T05:58:24;13.20;;;6.97;;
81894;SDS011;71358;45.642;13.758;2023-09-19T06:01:09;11.32;;;6.88;;
81894;SDS011;71358;45.642;13.758;2023-09-19T06:03:53;13.10;;;6.38;;
81894;SDS011;71358;45.642;13.758;2023-09-19T06:06:38;9.93;;;6.03;;
81894;SDS011;71358;45.642;13.758;2023-09-19T06:09:23;9.85;;;6.30;;
81894;SDS011;71358;45.642;13.758;2023-09-19T06:12:08;21.35;;;9.18;;
81894;SDS011;71358;45.642;13.758;2023-09-19T06:14:53;26.67;;;11.38;;
81894;SDS011;71358;45.642;13.758;2023-09-19T06:17:37;28.65;;;11.80;;
81894;SDS011;71358;45.642;13.758;2023-09-19T06:20:22;18.35;;;8.93;;
81894;SDS011;71358;45.642;13.758;2023-09-19T06:23:07;15.52;;;7.63;;
81894;SDS011;71358;45.642;13.758;2023-09-19T06:25:52;15.80;;;7.45;;
81894;SDS011;71358;45.642;13.758;2023-09-19T06:28:37;18.08;;;7.70;;
81894;SDS011;71358;45.642;13.758;2023-09-19T06:31:22;12.23;;;7.03;;
81894;SDS011;71358;45.642;13.758;2023-09-19T06:34:10;11.57;;;7.70;;
81894;SDS011;71358;45.642;13.758;2023-09-19T06:36:54;16.23;;;7.40;;
81894;SDS011;71358;45.642;13.758;2023-09-19T06:39:39;9.90;;;6.65;;
81894;SDS011;71358;45.642;13.758;2023-09-19T06:42:24;16.10;;;7.28;;
81894;SDS011;71358;45.642;13.758;2023-09-19T06:45:08;16.02;;;6.70;;
81894;SDS011;71358;45.642;13.758;2023-09-19T06:47:55;13.30;;;6.78;;
81894;SDS011;71358;45.642;13.758;2023-09-19T06:50:41;9.80;;;5.78;;
81894;SDS011;71358;45.642;13.758;2023-09-19T06:53:28;18.00;;;7.00;;
81894;SDS011;71358;45.642;13.758;2023-09-19T06:56:15;10.43;;;6.32;;
81894;SDS011;71358;45.642;13.758;2023-09-19T06:59:00;10.75;;;7.03;;
81894;SDS011;71358;45.642;13.758;2023-09-19T07:01:46;11.40;;;5.88;;
81894;SDS011;71358;45.642;13.758;2023-09-19T07:04:31;12.48;;;6.90;;
81894;SDS011;71358;45.642;13.758;2023-09-19T07:07:16;13.90;;;6.43;;
81894;SDS011;71358;45.642;13.758;2023-09-19T07:10:01;13.48;;;6.57;;
81894;SDS011;71358;45.642;13.758;2023-09-19T07:12:46;11.50;;;6.68;;
81894;SDS011;71358;45.642;13.758;2023-09-19T07:15:32;12.85;;;6.75;;
81894;SDS011;71358;45.642;13.758;2023-09-19T07:18:23;14.90;;;7.32;;
81894;SDS011;71358;45.642;13.758;2023-09-19T07:21:08;17.35;;;6.28;;
81894;SDS011;71358;45.642;13.758;2023-09-19T07:23:54;11.13;;;5.90;;
81894;SDS011;71358;45.642;13.758;2023-09-19T07:26:39;10.95;;;6.18;;
81894;SDS011;71358;45.642;13.758;2023-09-19T07:29:24;11.98;;;6.07;;
81894;SDS011;71358;45.642;13.758;2023-09-19T07:32:09;13.32;;;6.35;;
81894;SDS011;71358;45.642;13.758;2023-09-19T07:34:54;15.18;;;7.22;;
81894;SDS011;71358;45.642;13.758;2023-09-19T07:37:38;17.73;;;6.20;;
81894;SDS011;71358;45.642;13.758;2023-09-19T07:40:23;12.20;;;6.53;;
81894;SDS011;71358;45.642;13.758;2023-09-19T07:43:10;13.40;;;6.05;;
81894;SDS011;71358;45.642;13.758;2023-09-19T07:45:55;10.50;;;5.53;;
81894;SDS011;71358;45.642;13.758;2023-09-19T07:48:39;11.05;;;6.28;;
81894;SDS011;71358;45.642;13.758;2023-09-19T07:51:24;13.93;;;6.35;;
81894;SDS011;71358;45.642;13.758;2023-09-19T07:54:09;16.42;;;7.80;;
81894;SDS011;71358;45.642;13.758;2023-09-19T07:56:54;14.20;;;6.75;;
81894;SDS011;71358;45.642;13.758;2023-09-19T07:59:39;13.77;;;6.15;;
81894;SDS011;71358;45.642;13.758;2023-09-19T08:02:25;19.48;;;6.80;;
81894;SDS011;71358;45.642;13.758;2023-09-19T08:05:12;16.67;;;6.60;;
81894;SDS011;71358;45.642;13.758;2023-09-19T08:08:00;17.75;;;6.57;;
81894;SDS011;71358;45.642;13.758;2023-09-19T08:10:45;16.65;;;6.85;;
81894;SDS011;71358;45.642;13.758;2023-09-19T08:13:32;14.20;;;6.68;;
81894;SDS011;71358;45.642;13.758;2023-09-19T08:16:17;16.92;;;7.28;;
81894;SDS011;71358;45.642;13.758;2023-09-19T08:19:03;14.85;;;6.65;;
81894;SDS011;71358;45.642;13.758;2023-09-19T08:21:49;16.95;;;7.53;;
81894;SDS011;71358;45.642;13.758;2023-09-19T08:24:34;18.23;;;7.20;;
81894;SDS011;71358;45.642;13.758;2023-09-19T08:27:19;20.92;;;6.93;;
81894;SDS011;71358;45.642;13.758;2023-09-19T08:30:04;18.45;;;6.93;;
81894;SDS011;71358;45.642;13.758;2023-09-19T08:32:50;9.60;;;6.40;;
81894;SDS011;71358;45.642;13.758;2023-09-19T08:35:35;17.33;;;6.82;;
81894;SDS011;71358;45.642;13.758;2023-09-19T08:38:19;16.90;;;6.93;;
81894;SDS011;71358;45.642;13.758;2023-09-19T08:41:07;15.95;;;6.78;;
81894;SDS011;71358;45.642;13.758;2023-09-19T08:43:52;16.50;;;6.20;;
81894;SDS011;71358;45.642;13.758;2023-09-19T08:46:37;17.27;;;6.82;;
81894;SDS011;71358;45.642;13.758;2023-09-19T08:49:41;12.50;;;6.75;;
81894;SDS011;71358;45.642;13.758;2023-09-19T08:52:41;16.65;;;6.95;;
81894;SDS011;71358;45.642;13.758;2023-09-19T08:55:29;17.05;;;6.88;;
81894;SDS011;71358;45.642;13.758;2023-09-19T08:58:15;14.20;;;6.45;;
81894;SDS011;71358;45.642;13.758;2023-09-19T09:01:04;10.55;;;6.68;;
81894;SDS011;71358;45.642;13.758;2023-09-19T09:03:51;12.73;;;6.68;;
81894;SDS011;71358;45.642;13.758;2023-09-19T09:06:37;14.80;;;6.55;;
81894;SDS011;71358;45.642;13.758;2023-09-19T09:09:24;14.88;;;7.07;;
81894;SDS011;71358;45.642;13.758;2023-09-19T09:12:10;9.88;;;6.22;;
81894;SDS011;71358;45.642;13.758;2023-09-19T09:14:57;17.60;;;6.35;;
81894;SDS011;71358;45.642;13.758;2023-09-19T09:17:41;9.98;;;6.28;;
81894;SDS011;71358;45.642;13.758;2023-09-19T09:20:27;18.85;;;6.60;;
81894;SDS011;71358;45.642;13.758;2023-09-19T09:23:11;15.65;;;6.65;;
81894;SDS011;71358;45.642;13.758;2023-09-19T09:25:57;12.10;;;5.57;;
81894;SDS011;71358;45.642;13.758;2023-09-19T09:28:46;12.50;;;6.10;;
81894;SDS011;71358;45.642;13.758;2023-09-19T09:31:32;12.35;;;5.63;;
81894;SDS011;71358;45.642;13.758;2023-09-19T09:34:16;12.48;;;5.93;;
81894;SDS011;71358;45.642;13.758;2023-09-19T09:37:02;11.63;;;5.85;;
81894;SDS011;71358;45.642;13.758;2023-09-19T09:39:49;12.73;;;5.93;;
81894;SDS011;71358;45.642;13.758;2023-09-19T09:42:38;14.25;;;6.03;;
81894;SDS011;71358;45.642;13.758;2023-09-19T09:45:25;12.38;;;6.05;;
81894;SDS011;71358;45.642;13.758;2023-09-19T09:48:24;15.85;;;6.03;;
81894;SDS011;71358;45.642;13.758;2023-09-19T09:51:15;9.00;;;5.95;;
81894;SDS011;71358;45.642;13.758;2023-09-19T09:54:15;12.88;;;6.03;;
81894;SDS011;71358;45.642;13.758;2023-09-19T09:57:01;14.93;;;7.07;;
81894;SDS011;71358;45.642;13.758;2023-09-19T09:59:58;13.85;;;6.72;;
81894;SDS011;71358;45.642;13.758;2023-09-19T10:02:55;9.55;;;5.35;;
81894;SDS011;71358;45.642;13.758;2023-09-19T10:05:43;11.57;;;5.57;;
81894;SDS011;71358;45.642;13.758;2023-09-19T10:08:28;10.93;;;5.50;;
81894;SDS011;71358;45.642;13.758;2023-09-19T10:11:15;8.93;;;5.45;;
81894;SDS011;71358;45.642;13.758;2023-09-19T10:14:00;10.38;;;6.05;;
81894;SDS011;71358;45.642;13.758;2023-09-19T10:16:50;9.88;;;5.82;;
81894;SDS011;71358;45.642;13.758;2023-09-19T10:19:56;9.38;;;4.63;;
81894;SDS011;71358;45.642;13.758;2023-09-19T10:22:42;8.27;;;4.35;;
81894;SDS011;71358;45.642;13.758;2023-09-19T10:25:34;6.10;;;3.47;;
81894;SDS011;71358;45.642;13.758;2023-09-19T10:28:21;5.95;;;3.75;;
81894;SDS011;71358;45.642;13.758;2023-09-19T10:31:05;5.80;;;3.10;;
81894;SDS011;71358;45.642;13.758;2023-09-19T10:33:53;6.88;;;3.30;;
81894;SDS011;71358;45.642;13.758;2023-09-19T10:36:39;7.63;;;4.00;;
81894;SDS011;71358;45.642;13.758;2023-09-19T10:39:28;4.93;;;3.15;;
81894;SDS011;71358;45.642;13.758;2023-09-19T10:42:17;7.00;;;3.10;;
81894;SDS011;71358;45.642;13.758;2023-09-19T10:45:04;5.97;;;3.13;;
81894;SDS011;71358;45.642;13.758;2023-09-19T10:47:56;6.05;;;3.22;;
81894;SDS011;71358;45.642;13.758;2023-09-19T10:53:54;4.03;;;2.75;;
81894;SDS011;71358;45.642;13.758;2023-09-19T10:56:50;2.83;;;2.47;;
81894;SDS011;71358;45.642;13.758;2023-09-19T10:59:35;5.55;;;2.53;;
81894;SDS011;71358;45.642;13.758;2023-09-19T11:02:20;4.20;;;2.55;;
81894;SDS011;71358;45.642;13.758;2023-09-19T11:05:13;3.15;;;2.22;;
81894;SDS011;71358;45.642;13.758;2023-09-19T11:07:58;3.78;;;2.28;;
81894;SDS011;71358;45.642;13.758;2023-09-19T11:10:48;2.55;;;2.10;;
81894;SDS011;71358;45.642;13.758;2023-09-19T11:13:34;3.17;;;2.40;;
81894;SDS011;71358;45.642;13.758;2023-09-19T11:16:20;4.97;;;2.75;;
81894;SDS011;71358;45.642;13.758;2023-09-19T11:19:07;3.55;;;2.33;;
81894;SDS011;71358;45.642;13.758;2023-09-19T11:21:54;4.25;;;2.55;;
81894;SDS011;71358;45.642;13.758;2023-09-19T11:24:39;3.22;;;2.35;;
81894;SDS011;71358;45.642;13.758;2023-09-19T11:27:23;2.90;;;2.33;;
81894;SDS011;71358;45.642;13.758;2023-09-19T11:30:27;5.00;;;2.15;;
81894;SDS011;71358;45.642;13.758;2023-09-19T11:33:15;2.90;;;2.30;;
81894;SDS011;71358;45.642;13.758;2023-09-19T11:41:39;4.53;;;2.00;;
81894;SDS011;71358;45.642;13.758;2023-09-19T11:47:14;1.60;;;1.50;;
81894;SDS011;71358;45.642;13.758;2023-09-19T11:50:02;2.72;;;2.40;;
81894;SDS011;71358;45.642;13.758;2023-09-19T11:52:48;1.95;;;1.65;;
81894;SDS011;71358;45.642;13.758;2023-09-19T11:55:36;2.45;;;2.00;;
81894;SDS011;71358;45.642;13.758;2023-09-19T11:58:22;5.22;;;2.00;;
81894;SDS011;71358;45.642;13.758;2023-09-19T12:01:08;3.15;;;2.20;;
81894;SDS011;71358;45.642;13.758;2023-09-19T12:03:58;3.42;;;1.85;;
81894;SDS011;71358;45.642;13.758;2023-09-19T12:06:45;2.90;;;1.90;;
81894;SDS011;71358;45.642;13.758;2023-09-19T12:09:42;1.70;;;1.60;;
81894;SDS011;71358;45.642;13.758;2023-09-19T12:12:33;4.38;;;2.00;;
81894;SDS011;71358;45.642;13.758;2023-09-19T12:15:27;3.22;;;1.98;;
81894;SDS011;71358;45.642;13.758;2023-09-19T12:18:30;2.28;;;1.50;;
81894;SDS011;71358;45.642;13.758;2023-09-19T12:21:21;2.42;;;1.67;;
81894;SDS011;71358;45.642;13.758;2023-09-19T12:24:15;2.53;;;1.70;;
81894;SDS011;71358;45.642;13.758;2023-09-19T12:27:03;2.42;;;1.77;;
81894;SDS011;71358;45.642;13.758;2023-09-19T12:29:49;5.32;;;2.10;;
81894;SDS011;71358;45.642;13.758;2023-09-19T12:32:38;5.28;;;2.10;;
81894;SDS011;71358;45.642;13.758;2023-09-19T12:35:31;4.25;;;1.77;;
81894;SDS011;71358;45.642;13.758;2023-09-19T12:38:26;3.55;;;2.17;;
81894;SDS011;71358;45.642;13.758;2023-09-19T12:41:19;8.27;;;1.92;;
81894;SDS011;71358;45.642;13.758;2023-09-19T12:44:05;12.52;;;2.53;;
81894;SDS011;71358;45.642;13.758;2023-09-19T12:46:53;4.43;;;2.67;;
81894;SDS011;71358;45.642;13.758;2023-09-19T12:53:24;4.38;;;2.58;;
81894;SDS011;71358;45.642;13.758;2023-09-19T12:56:13;5.63;;;2.75;;
81894;SDS011;71358;45.642;13.758;2023-09-19T12:58:59;8.43;;;3.22;;
81894;SDS011;71358;45.642;13.758;2023-09-19T13:01:46;4.15;;;2.97;;
81894;SDS011;71358;45.642;13.758;2023-09-19T13:04:54;7.68;;;3.47;;
81894;SDS011;71358;45.642;13.758;2023-09-19T13:07:43;10.23;;;4.00;;
81894;SDS011;71358;45.642;13.758;2023-09-19T13:10:33;5.03;;;2.60;;
81894;SDS011;71358;45.642;13.758;2023-09-19T13:13:23;7.00;;;3.47;;
81894;SDS011;71358;45.642;13.758;2023-09-19T13:16:11;6.68;;;3.13;;
81894;SDS011;71358;45.642;13.758;2023-09-19T13:18:58;8.30;;;3.40;;
81894;SDS011;71358;45.642;13.758;2023-09-19T13:21:42;7.85;;;3.55;;
81894;SDS011;71358;45.642;13.758;2023-09-19T13:24:34;4.95;;;3.47;;
81894;SDS011;71358;45.642;13.758;2023-09-19T13:27:21;9.13;;;3.65;;
81894;SDS011;71358;45.642;13.758;2023-09-19T13:30:06;6.05;;;3.60;;
81894;SDS011;71358;45.642;13.758;2023-09-19T13:32:52;5.93;;;3.63;;
81894;SDS011;71358;45.642;13.758;2023-09-19T13:35:49;5.72;;;3.97;;
81894;SDS011;71358;45.642;13.758;2023-09-19T13:38:33;8.10;;;3.42;;
81894;SDS011;71358;45.642;13.758;2023-09-19T13:41:18;4.10;;;3.38;;
81894;SDS011;71358;45.642;13.758;2023-09-19T13:44:03;6.68;;;3.67;;
81894;SDS011;71358;45.642;13.758;2023-09-19T13:46:47;5.32;;;3.65;;
81894;SDS011;71358;45.642;13.758;2023-09-19T13:49:32;7.68;;;3.80;;
81894;SDS011;71358;45.642;13.758;2023-09-19T13:52:18;6.88;;;3.60;;
81894;SDS011;71358;45.642;13.758;2023-09-19T13:55:03;7.07;;;4.18;;
81894;SDS011;71358;45.642;13.758;2023-09-19T13:57:49;7.53;;;3.97;;
81894;SDS011;71358;45.642;13.758;2023-09-19T14:00:39;6.13;;;3.60;;
81894;SDS011;71358;45.642;13.758;2023-09-19T14:03:23;6.90;;;4.15;;
81894;SDS011;71358;45.642;13.758;2023-09-19T14:06:08;5.70;;;3.60;;
81894;SDS011;71358;45.642;13.758;2023-09-19T14:08:53;5.28;;;3.95;;
81894;SDS011;71358;45.642;13.758;2023-09-19T14:11:37;7.88;;;3.78;;
81894;SDS011;71358;45.642;13.758;2023-09-19T14:14:22;6.22;;;3.67;;
81894;SDS011;71358;45.642;13.758;2023-09-19T14:17:06;6.72;;;4.03;;
81894;SDS011;71358;45.642;13.758;2023-09-19T14:19:51;8.60;;;3.72;;
81894;SDS011;71358;45.642;13.758;2023-09-19T14:22:36;7.05;;;3.88;;
81894;SDS011;71358;45.642;13.758;2023-09-19T14:25:20;8.48;;;4.28;;
81894;SDS011;71358;45.642;13.758;2023-09-19T14:28:05;6.63;;;3.80;;
81894;SDS011;71358;45.642;13.758;2023-09-19T14:30:52;6.82;;;4.15;;
81894;SDS011;71358;45.642;13.758;2023-09-19T14:33:37;6.65;;;3.70;;
81894;SDS011;71358;45.642;13.758;2023-09-19T14:36:22;7.78;;;4.45;;
81894;SDS011;71358;45.642;13.758;2023-09-19T14:39:09;7.53;;;3.80;;
81894;SDS011;71358;45.642;13.758;2023-09-19T14:41:53;5.22;;;3.95;;
81894;SDS011;71358;45.642;13.758;2023-09-19T14:44:38;7.97;;;3.92;;
81894;SDS011;71358;45.642;13.758;2023-09-19T14:47:22;6.28;;;4.25;;
81894;SDS011;71358;45.642;13.758;2023-09-19T14:50:07;7.68;;;3.58;;
81894;SDS011;71358;45.642;13.758;2023-09-19T14:52:52;5.72;;;4.10;;
81894;SDS011;71358;45.642;13.758;2023-09-19T14:55:38;7.75;;;4.53;;
81894;SDS011;71358;45.642;13.758;2023-09-19T14:58:25;9.57;;;4.05;;
81894;SDS011;71358;45.642;13.758;2023-09-19T15:01:13;8.55;;;4.10;;
81894;SDS011;71358;45.642;13.758;2023-09-19T15:03:58;6.00;;;3.90;;
81894;SDS011;71358;45.642;13.758;2023-09-19T15:06:44;6.68;;;3.97;;
81894;SDS011;71358;45.642;13.758;2023-09-19T15:09:30;7.00;;;3.97;;
81894;SDS011;71358;45.642;13.758;2023-09-19T15:12:16;6.18;;;4.53;;
81894;SDS011;71358;45.642;13.758;2023-09-19T15:15:01;8.02;;;4.18;;
81894;SDS011;71358;45.642;13.758;2023-09-19T15:17:49;5.57;;;3.70;;
81894;SDS011;71358;45.642;13.758;2023-09-19T15:20:33;7.32;;;4.22;;
81894;SDS011;71358;45.642;13.758;2023-09-19T15:23:18;7.57;;;4.40;;
81894;SDS011;71358;45.642;13.758;2023-09-19T15:26:03;5.88;;;3.97;;
81894;SDS011;71358;45.642;13.758;2023-09-19T15:28:48;6.80;;;4.88;;
81894;SDS011;71358;45.642;13.758;2023-09-19T15:31:33;5.53;;;4.00;;
81894;SDS011;71358;45.642;13.758;2023-09-19T15:34:17;7.03;;;4.32;;
81894;SDS011;71358;45.642;13.758;2023-09-19T15:37:02;10.07;;;4.32;;
81894;SDS011;71358;45.642;13.758;2023-09-19T15:39:46;7.07;;;4.30;;
81894;SDS011;71358;45.642;13.758;2023-09-19T15:42:31;4.82;;;4.03;;
81894;SDS011;71358;45.642;13.758;2023-09-19T15:45:16;8.45;;;4.60;;
81894;SDS011;71358;45.642;13.758;2023-09-19T15:48:02;7.97;;;3.90;;
81894;SDS011;71358;45.642;13.758;2023-09-19T15:50:48;5.18;;;4.22;;
81894;SDS011;71358;45.642;13.758;2023-09-19T15:53:49;9.02;;;4.60;;
81894;SDS011;71358;45.642;13.758;2023-09-19T15:56:34;8.43;;;4.28;;
81894;SDS011;71358;45.642;13.758;2023-09-19T15:59:19;8.13;;;4.60;;
81894;SDS011;71358;45.642;13.758;2023-09-19T16:02:04;6.43;;;4.25;;
81894;SDS011;71358;45.642;13.758;2023-09-19T16:04:49;9.02;;;3.85;;
81894;SDS011;71358;45.642;13.758;2023-09-19T16:07:33;5.75;;;4.35;;
81894;SDS011;71358;45.642;13.758;2023-09-19T16:10:18;6.28;;;4.50;;
81894;SDS011;71358;45.642;13.758;2023-09-19T16:13:03;6.30;;;3.92;;
81894;SDS011;71358;45.642;13.758;2023-09-19T16:15:47;7.30;;;4.63;;
81894;SDS011;71358;45.642;13.758;2023-09-19T16:18:32;7.07;;;3.97;;
81894;SDS011;71358;45.642;13.758;2023-09-19T16:21:16;8.23;;;4.70;;
81894;SDS011;71358;45.642;13.758;2023-09-19T16:24:03;8.48;;;4.35;;
81894;SDS011;71358;45.642;13.758;2023-09-19T16:26:48;6.78;;;4.95;;
81894;SDS011;71358;45.642;13.758;2023-09-19T16:29:33;8.63;;;4.43;;
81894;SDS011;71358;45.642;13.758;2023-09-19T16:32:18;6.32;;;4.22;;
81894;SDS011;71358;45.642;13.758;2023-09-19T16:35:03;9.77;;;4.43;;
81894;SDS011;71358;45.642;13.758;2023-09-19T16:37:48;8.80;;;4.72;;
81894;SDS011;71358;45.642;13.758;2023-09-19T16:40:32;9.25;;;4.57;;
81894;SDS011;71358;45.642;13.758;2023-09-19T16:43:17;7.55;;;4.32;;
81894;SDS011;71358;45.642;13.758;2023-09-19T16:46:02;7.53;;;4.43;;
81894;SDS011;71358;45.642;13.758;2023-09-19T16:48:55;9.57;;;4.03;;
81894;SDS011;71358;45.642;13.758;2023-09-19T16:51:40;9.15;;;4.47;;